Time;durP1;ratioP1;P1;durP2;ratioP2;P2;SDS_P1;SDS_P2;PMS_P1;PMS_P2;Temp;Humidity;BMP_temperature;BMP_pressure;BME280_temperature;BME280_humidity;BME280_pressure;Samples;Min_cycle;Max_cycle;Signal;HPM_P1;HPM_P2
2023/07/03 00:00:34;;;;;;;27.55;7.22;;;16.30;74.90;;;;;;5035816;28;20152;-74
2023/07/03 00:02:59;;;;;;;24.75;6.25;;;16.30;75.10;;;;;;5037307;28;20032;-75
2023/07/03 00:05:25;;;;;;;34.72;8.20;;;16.30;75.20;;;;;;5030391;28;20033;-76
2023/07/03 00:07:51;;;;;;;28.02;7.10;;;16.30;75.30;;;;;;5033269;28;20041;-75
2023/07/03 00:10:17;;;;;;;28.15;7.38;;;16.30;75.50;;;;;;5032167;28;20041;-75
2023/07/03 00:12:44;;;;;;;24.73;7.70;;;16.20;75.70;;;;;;5035347;28;20033;-75
2023/07/03 00:15:10;;;;;;;26.27;7.18;;;16.20;75.70;;;;;;5034376;28;20042;-76
2023/07/03 00:17:37;;;;;;;34.45;8.15;;;16.10;75.70;;;;;;5032264;28;20097;-75
2023/07/03 00:20:04;;;;;;;30.13;7.97;;;16.10;76.40;;;;;;5031705;28;20021;-75
2023/07/03 00:22:31;;;;;;;29.20;7.60;;;16.10;76.40;;;;;;5029966;28;20025;-76
2023/07/03 00:24:56;;;;;;;22.88;7.13;;;16.10;76.50;;;;;;5025857;28;20035;-75
2023/07/03 00:27:22;;;;;;;30.02;7.88;;;16.10;76.70;;;;;;5033157;28;20079;-76
2023/07/03 00:29:48;;;;;;;27.90;7.18;;;16.10;76.80;;;;;;5026133;28;20462;-75
2023/07/03 00:32:14;;;;;;;25.75;7.55;;;16.10;77.00;;;;;;5034342;28;20067;-75
2023/07/03 00:34:39;;;;;;;21.48;7.57;;;16.10;77.10;;;;;;5033225;28;20029;-74
2023/07/03 00:37:05;;;;;;;26.95;7.10;;;16.10;77.20;;;;;;5042270;28;20557;-76
2023/07/03 00:39:31;;;;;;;30.08;7.65;;;16.10;77.40;;;;;;5025980;28;20072;-77
2023/07/03 00:41:58;;;;;;;32.25;7.60;;;16.00;77.30;;;;;;5028440;28;20029;-74
2023/07/03 00:44:24;;;;;;;27.33;7.47;;;16.00;77.80;;;;;;5028262;28;20125;-75
2023/07/03 00:46:50;;;;;;;31.70;8.65;;;15.90;78.00;;;;;;5029264;28;20151;-75
2023/07/03 00:49:18;;;;;;;29.20;7.38;;;15.90;78.00;;;;;;5028044;28;20036;-74
2023/07/03 00:51:54;;;;;;;30.23;7.43;;;16.00;78.10;;;;;;5042828;28;20033;-74
2023/07/03 00:54:21;;;;;;;27.20;8.18;;;16.00;78.20;;;;;;5029390;28;20017;-74
2023/07/03 00:56:46;;;;;;;29.70;7.90;;;15.90;78.20;;;;;;5037676;28;20049;-75
2023/07/03 00:59:13;;;;;;;31.40;8.32;;;15.90;78.40;;;;;;5027933;28;20092;-75
2023/07/03 01:01:55;;;;;;;33.40;9.30;;;15.90;78.80;;;;;;5034772;28;20025;-74
2023/07/03 01:04:25;;;;;;;29.23;8.27;;;15.90;78.70;;;;;;5036667;28;20107;-75
2023/07/03 01:07:15;;;;;;;28.30;8.35;;;15.80;79.10;;;;;;5037459;28;20494;-74
2023/07/03 01:09:45;;;;;;;32.72;9.43;;;15.80;79.20;;;;;;5029816;28;20040;-75
2023/07/03 01:12:11;;;;;;;29.70;8.32;;;15.80;79.40;;;;;;5028789;28;20282;-75
2023/07/03 01:14:40;;;;;;;26.63;8.05;;;15.80;79.50;;;;;;5036320;28;20041;-74
2023/07/03 01:17:09;;;;;;;30.58;7.95;;;15.80;79.80;;;;;;5031063;28;20075;-75
2023/07/03 01:19:36;;;;;;;30.90;8.38;;;15.80;80.10;;;;;;5031628;28;20486;-75
2023/07/03 01:22:15;;;;;;;29.52;8.65;;;15.90;79.80;;;;;;5029853;28;20033;-75
2023/07/03 01:24:47;;;;;;;26.00;8.05;;;15.90;79.50;;;;;;5028989;28;20056;-77
2023/07/03 01:27:16;;;;;;;28.58;7.85;;;15.90;79.70;;;;;;5023274;28;20045;-75
2023/07/03 01:29:43;;;;;;;31.83;8.27;;;16.00;79.60;;;;;;5037692;28;20134;-74
2023/07/03 01:32:11;;;;;;;29.80;9.48;;;16.00;80.00;;;;;;5036328;28;20405;-74
2023/07/03 01:34:42;;;;;;;31.05;9.05;;;16.00;79.90;;;;;;5037626;28;20025;-74
2023/07/03 01:37:10;;;;;;;29.48;8.85;;;16.10;79.90;;;;;;5026324;28;20076;-74
2023/07/03 01:39:36;;;;;;;26.02;8.02;;;16.10;79.60;;;;;;5036253;28;20022;-76
2023/07/03 01:42:04;;;;;;;32.95;9.50;;;16.10;79.80;;;;;;5030315;28;20103;-76
2023/07/03 01:44:29;;;;;;;29.90;8.82;;;16.10;79.90;;;;;;5028126;28;20022;-74
2023/07/03 01:47:03;;;;;;;30.67;10.23;;;16.10;80.00;;;;;;5031925;28;20049;-74
2023/07/03 01:49:29;;;;;;;31.90;8.63;;;16.10;80.00;;;;;;5027378;28;20032;-75
2023/07/03 01:52:19;;;;;;;31.15;10.00;;;16.10;80.00;;;;;;5037721;28;20037;-77
2023/07/03 01:55:10;;;;;;;33.35;9.65;;;16.10;80.10;;;;;;5036685;28;20113;-74
2023/07/03 01:57:49;;;;;;;29.58;9.23;;;16.10;80.10;;;;;;5027073;28;20041;-74
2023/07/03 02:00:22;;;;;;;26.08;8.35;;;16.20;79.80;;;;;;5028773;28;20038;-74
2023/07/03 02:02:52;;;;;;;32.95;8.73;;;16.20;80.00;;;;;;5034049;28;20032;-75
2023/07/03 02:05:22;;;;;;;32.67;9.63;;;16.20;79.90;;;;;;5022056;28;20038;-76
2023/07/03 02:07:54;;;;;;;36.97;9.05;;;16.30;79.80;;;;;;5029278;28;20406;-75
2023/07/03 02:10:20;;;;;;;29.77;8.80;;;16.30;79.80;;;;;;5036876;28;20041;-75
2023/07/03 02:12:46;;;;;;;28.55;9.13;;;16.30;79.90;;;;;;5033861;28;20028;-75
2023/07/03 02:15:14;;;;;;;29.25;7.72;;;16.30;80.10;;;;;;5024833;28;20092;-76
2023/07/03 02:17:40;;;;;;;32.53;10.20;;;16.30;80.00;;;;;;5028394;28;20037;-75
2023/07/03 02:20:09;;;;;;;29.30;8.10;;;16.30;80.10;;;;;;5036428;28;20038;-76
2023/07/03 02:22:36;;;;;;;29.67;9.43;;;16.30;80.10;;;;;;5032120;28;20029;-75
2023/07/03 02:25:01;;;;;;;29.30;9.25;;;16.20;80.40;;;;;;5030158;28;20145;-78
2023/07/03 02:27:27;;;;;;;25.70;8.65;;;16.20;80.60;;;;;;5032648;28;20079;-75
2023/07/03 02:29:54;;;;;;;28.10;9.48;;;16.20;80.60;;;;;;5031656;28;20025;-76
2023/07/03 02:32:19;;;;;;;28.90;9.45;;;16.20;80.50;;;;;;5028960;28;20650;-76
2023/07/03 02:34:45;;;;;;;31.75;9.60;;;16.20;80.50;;;;;;5026801;28;20029;-76
2023/07/03 02:37:13;;;;;;;32.33;9.00;;;16.30;80.40;;;;;;5030934;28;20131;-77
2023/07/03 02:39:39;;;;;;;30.60;10.27;;;16.30;80.30;;;;;;5023498;28;20095;-75
2023/07/03 02:42:05;;;;;;;32.53;9.35;;;16.30;80.20;;;;;;5031915;28;20481;-75
2023/07/03 02:44:30;;;;;;;26.38;9.75;;;16.30;80.20;;;;;;5030280;28;20489;-76
2023/07/03 02:46:56;;;;;;;30.85;9.38;;;16.30;80.10;;;;;;5029873;28;20099;-75
2023/07/03 02:49:28;;;;;;;29.10;10.95;;;16.40;79.90;;;;;;5032837;28;20052;-75
2023/07/03 02:51:53;;;;;;;32.97;10.60;;;16.40;79.90;;;;;;5027026;28;20114;-75
2023/07/03 02:54:19;;;;;;;30.45;10.32;;;16.30;79.80;;;;;;5035650;28;20517;-74
2023/07/03 02:56:45;;;;;;;29.60;9.50;;;16.30;80.10;;;;;;5035135;28;20544;-75
2023/07/03 02:59:14;;;;;;;28.45;8.38;;;16.20;80.10;;;;;;5028244;28;20432;-74
2023/07/03 03:01:39;;;;;;;30.00;9.48;;;16.20;80.20;;;;;;5032814;28;20025;-75
2023/07/03 03:04:05;;;;;;;26.02;9.02;;;16.20;80.30;;;;;;5025398;28;20032;-76
2023/07/03 03:06:32;;;;;;;30.52;9.25;;;16.10;80.40;;;;;;5027665;28;20039;-75
2023/07/03 03:08:57;;;;;;;27.35;9.77;;;16.10;80.60;;;;;;5025108;28;20115;-75
2023/07/03 03:11:23;;;;;;;31.38;8.80;;;16.10;80.20;;;;;;5031493;28;20144;-77
2023/07/03 03:13:49;;;;;;;29.10;9.18;;;16.20;80.10;;;;;;5027103;28;20470;-75
2023/07/03 03:16:14;;;;;;;34.17;9.73;;;16.10;79.70;;;;;;5028005;28;20478;-76
2023/07/03 03:18:40;;;;;;;26.13;8.85;;;16.10;79.50;;;;;;5025983;28;20078;-75
2023/07/03 03:21:05;;;;;;;28.52;8.73;;;16.10;79.60;;;;;;5023429;28;20026;-74
2023/07/03 03:23:31;;;;;;;27.58;9.52;;;16.10;79.70;;;;;;5031276;28;20013;-74
2023/07/03 03:25:57;;;;;;;25.17;9.20;;;16.10;79.50;;;;;;5037555;28;20532;-74
2023/07/03 03:28:22;;;;;;;28.35;8.88;;;16.10;79.20;;;;;;5027885;28;20039;-74
2023/07/03 03:30:48;;;;;;;28.85;8.88;;;16.10;79.10;;;;;;5033799;28;20041;-75
2023/07/03 03:33:14;;;;;;;26.80;9.07;;;16.10;78.70;;;;;;5029534;28;20073;-75
2023/07/03 03:35:41;;;;;;;32.25;8.65;;;16.10;78.50;;;;;;5033315;28;20041;-75
2023/07/03 03:38:07;;;;;;;27.38;9.05;;;16.10;78.50;;;;;;5028157;28;20054;-76
2023/07/03 03:40:32;;;;;;;24.98;8.48;;;16.10;78.40;;;;;;5028775;28;20132;-74
2023/07/03 03:42:58;;;;;;;24.17;7.30;;;16.00;77.80;;;;;;5023864;28;20049;-74
2023/07/03 03:45:24;;;;;;;24.13;8.23;;;16.10;77.10;;;;;;5027045;28;20033;-77
2023/07/03 03:47:51;;;;;;;20.63;7.43;;;16.00;76.70;;;;;;5032322;28;20025;-74
2023/07/03 03:50:17;;;;;;;24.77;8.27;;;16.10;76.70;;;;;;5029097;28;20037;-74
2023/07/03 03:52:43;;;;;;;26.65;8.73;;;16.10;76.20;;;;;;5033234;28;20030;-75
2023/07/03 03:55:08;;;;;;;22.65;6.70;;;16.10;75.90;;;;;;5025082;28;20039;-75
2023/07/03 03:57:34;;;;;;;19.95;6.97;;;16.10;74.90;;;;;;5027857;28;20041;-74
2023/07/03 04:00:00;;;;;;;23.40;7.78;;;16.10;75.30;;;;;;5027399;28;20361;-75
2023/07/03 04:02:26;;;;;;;23.83;6.78;;;16.10;75.20;;;;;;5024775;28;20033;-75
2023/07/03 04:04:51;;;;;;;21.75;6.82;;;16.00;74.60;;;;;;5026364;28;20037;-75
2023/07/03 04:07:17;;;;;;;24.25;7.75;;;16.00;74.30;;;;;;5020709;28;20037;-77
2023/07/03 04:09:43;;;;;;;24.30;6.75;;;16.00;74.40;;;;;;5033407;28;20038;-75
2023/07/03 04:12:08;;;;;;;19.38;6.22;;;16.00;74.10;;;;;;5024060;28;20038;-74
2023/07/03 04:14:34;;;;;;;15.85;6.13;;;16.10;74.00;;;;;;5026279;28;20129;-75
2023/07/03 04:17:01;;;;;;;21.35;7.25;;;16.10;73.80;;;;;;5035919;28;20067;-75
2023/07/03 04:19:28;;;;;;;18.35;6.20;;;16.20;73.50;;;;;;5026790;28;20048;-75
2023/07/03 04:21:54;;;;;;;21.73;7.72;;;16.40;73.10;;;;;;5032538;28;20043;-74
2023/07/03 04:24:19;;;;;;;20.33;6.90;;;16.50;73.10;;;;;;5025631;28;20116;-78
2023/07/03 04:26:45;;;;;;;21.40;6.72;;;16.60;73.00;;;;;;5026464;28;20041;-75
2023/07/03 04:29:11;;;;;;;21.02;7.93;;;16.70;73.10;;;;;;5024260;28;20075;-74
2023/07/03 04:31:37;;;;;;;25.58;8.00;;;16.70;73.50;;;;;;5026765;28;20517;-74
2023/07/03 04:34:02;;;;;;;27.73;8.13;;;16.70;73.80;;;;;;5034043;28;20515;-75
2023/07/03 04:36:28;;;;;;;21.98;7.28;;;16.80;74.10;;;;;;5035002;28;20073;-77
2023/07/03 04:38:57;;;;;;;24.92;7.57;;;16.70;74.40;;;;;;5032909;28;20105;-74
2023/07/03 04:41:29;;;;;;;30.23;8.50;;;16.60;75.00;;;;;;5028356;28;20517;-75
2023/07/03 04:43:57;;;;;;;23.92;8.00;;;16.70;74.80;;;;;;5029129;28;20030;-75
2023/07/03 04:46:26;;;;;;;19.38;7.50;;;16.60;74.90;;;;;;5030734;28;20452;-75
2023/07/03 04:49:00;;;;;;;25.63;7.90;;;16.60;74.20;;;;;;5031856;28;20378;-74
2023/07/03 04:51:30;;;;;;;26.67;8.93;;;16.70;74.50;;;;;;5026891;28;20036;-74
2023/07/03 04:53:58;;;;;;;22.95;8.05;;;16.70;75.20;;;;;;5033634;28;20633;-74
2023/07/03 04:56:24;;;;;;;25.15;7.97;;;16.70;75.80;;;;;;5030244;28;20049;-74
2023/07/03 04:58:51;;;;;;;26.73;8.20;;;16.70;76.40;;;;;;5038198;28;20036;-75
2023/07/03 05:01:17;;;;;;;29.50;9.70;;;16.70;76.70;;;;;;5036918;28;20037;-74
2023/07/03 05:03:42;;;;;;;30.50;9.57;;;16.80;77.40;;;;;;5026223;28;20033;-74
2023/07/03 05:06:09;;;;;;;29.15;9.25;;;16.70;77.80;;;;;;5036460;28;20040;-76
2023/07/03 05:08:35;;;;;;;25.13;9.00;;;16.80;77.90;;;;;;5028237;28;20017;-74
2023/07/03 05:11:01;;;;;;;20.50;8.68;;;16.80;78.10;;;;;;5037384;28;20238;-75
2023/07/03 05:13:27;;;;;;;32.40;9.75;;;16.80;78.50;;;;;;5030424;28;20048;-74
2023/07/03 05:15:54;;;;;;;28.98;8.95;;;16.70;79.00;;;;;;5026917;28;20514;-76
2023/07/03 05:18:20;;;;;;;25.58;9.32;;;16.70;79.10;;;;;;5030702;28;20446;-74
2023/07/03 05:20:48;;;;;;;24.60;8.55;;;16.70;79.10;;;;;;5032921;28;20036;-74
2023/07/03 05:23:15;;;;;;;26.55;8.90;;;16.80;79.20;;;;;;5033451;28;20481;-74
2023/07/03 05:25:42;;;;;;;28.10;9.57;;;16.80;79.10;;;;;;5032842;28;20029;-74
2023/07/03 05:28:08;;;;;;;26.20;9.00;;;16.80;79.00;;;;;;5030015;28;20037;-74
2023/07/03 05:30:34;;;;;;;24.20;7.82;;;16.90;78.80;;;;;;5031320;28;20038;-74
2023/07/03 05:33:00;;;;;;;27.33;8.70;;;17.00;78.20;;;;;;5028112;28;20048;-73
2023/07/03 05:35:26;;;;;;;25.70;8.13;;;17.10;77.80;;;;;;5032444;28;20486;-74
2023/07/03 05:37:51;;;;;;;26.10;8.93;;;17.10;76.70;;;;;;5033472;28;20044;-75
2023/07/03 05:40:18;;;;;;;22.98;8.30;;;17.00;76.60;;;;;;5037340;28;20037;-74
2023/07/03 05:42:44;;;;;;;22.88;6.82;;;17.10;75.90;;;;;;5024862;28;20041;-74
2023/07/03 05:45:10;;;;;;;22.95;6.93;;;17.10;74.70;;;;;;5027584;28;20021;-74
2023/07/03 05:47:35;;;;;;;21.50;7.28;;;16.90;73.90;;;;;;5029676;28;20035;-75
2023/07/03 05:50:02;;;;;;;17.42;7.00;;;16.90;73.80;;;;;;5032444;28;20433;-75
2023/07/03 05:52:28;;;;;;;20.38;6.57;;;17.00;73.60;;;;;;5028697;28;20026;-75
2023/07/03 05:54:54;;;;;;;21.20;5.97;;;17.00;73.60;;;;;;5034652;28;20033;-75
2023/07/03 05:57:20;;;;;;;16.58;6.25;;;17.00;72.00;;;;;;5030243;28;20119;-75
2023/07/03 05:59:48;;;;;;;20.77;6.32;;;17.00;71.30;;;;;;5029119;28;20164;-74
2023/07/03 06:02:14;;;;;;;18.33;5.95;;;17.00;70.70;;;;;;5037174;28;20041;-74
2023/07/03 06:04:41;;;;;;;17.95;5.80;;;17.00;70.70;;;;;;5037020;28;20044;-75
2023/07/03 06:07:07;;;;;;;17.27;6.00;;;16.90;70.40;;;;;;5027260;28;20034;-75
2023/07/03 06:09:33;;;;;;;19.70;6.85;;;17.00;70.30;;;;;;5029582;28;20033;-75
2023/07/03 06:11:59;;;;;;;17.25;6.32;;;17.10;70.60;;;;;;5031824;28;20033;-74
2023/07/03 06:14:25;;;;;;;20.90;6.63;;;17.10;71.30;;;;;;5030641;28;20180;-75
2023/07/03 06:16:52;;;;;;;23.75;7.57;;;17.30;71.40;;;;;;5034627;28;20054;-75
2023/07/03 06:19:19;;;;;;;24.25;7.45;;;17.40;71.60;;;;;;5028147;28;20040;-75
2023/07/03 06:21:45;;;;;;;18.27;6.80;;;17.50;71.80;;;;;;5032656;28;20029;-75
2023/07/03 06:24:13;;;;;;;19.73;7.10;;;17.60;71.70;;;;;;5027279;28;20032;-74
2023/07/03 06:26:39;;;;;;;23.67;8.32;;;18.10;71.60;;;;;;5036057;28;20026;-74
2023/07/03 06:29:07;;;;;;;23.13;7.68;;;18.50;70.60;;;;;;5024080;28;20370;-75
2023/07/03 06:31:33;;;;;;;21.10;7.63;;;18.90;70.00;;;;;;5025580;28;20022;-75
2023/07/03 06:33:59;;;;;;;24.42;8.77;;;19.10;69.10;;;;;;5029783;28;20477;-75
2023/07/03 06:36:25;;;;;;;23.58;8.75;;;19.60;68.50;;;;;;5023659;28;20049;-74
2023/07/03 06:39:04;;;;;;;23.23;8.32;;;19.80;67.40;;;;;;5022430;28;20029;-75
2023/07/03 06:41:31;;;;;;;26.52;8.60;;;19.70;67.40;;;;;;5030348;28;20049;-76
2023/07/03 06:43:57;;;;;;;26.25;8.10;;;19.60;68.00;;;;;;5032456;28;20052;-75
2023/07/03 06:46:23;;;;;;;24.02;8.48;;;19.10;67.80;;;;;;5030410;28;20107;-75
2023/07/03 06:48:49;;;;;;;24.08;7.85;;;19.00;68.70;;;;;;5036452;28;20206;-75
2023/07/03 06:51:15;;;;;;;32.17;8.43;;;18.80;69.10;;;;;;5029832;28;20045;-75
2023/07/03 06:53:41;;;;;;;23.45;8.23;;;18.60;70.00;;;;;;5027254;28;20017;-76
2023/07/03 06:56:07;;;;;;;26.67;8.32;;;18.60;70.30;;;;;;5031884;28;20176;-75
2023/07/03 06:58:33;;;;;;;21.50;7.30;;;18.60;70.20;;;;;;5030793;28;20021;-76
2023/07/03 07:01:07;;;;;;;22.58;6.80;;;18.60;69.50;;;;;;5026222;28;20060;-74
2023/07/03 07:03:33;;;;;;;24.33;7.13;;;18.70;68.00;;;;;;5030338;28;20025;-76
2023/07/03 07:06:07;;;;;;;20.23;7.78;;;18.60;68.60;;;;;;5036347;28;20037;-76
2023/07/03 07:08:33;;;;;;;20.58;6.88;;;18.60;68.50;;;;;;5029280;28;20072;-76
2023/07/03 07:10:59;;;;;;;20.65;6.43;;;19.00;66.10;;;;;;5037384;28;20053;-76
2023/07/03 07:13:24;;;;;;;20.20;6.43;;;19.30;65.50;;;;;;5036018;28;20030;-74
2023/07/03 07:15:50;;;;;;;21.77;6.90;;;19.60;64.70;;;;;;5028710;28;20133;-75
2023/07/03 07:18:16;;;;;;;22.25;6.50;;;19.60;64.10;;;;;;5028877;28;20371;-75
2023/07/03 07:20:41;;;;;;;18.77;7.07;;;19.50;63.70;;;;;;5038926;28;20059;-76
2023/07/03 07:23:08;;;;;;;17.42;6.00;;;19.50;62.30;;;;;;5036017;28;20025;-75
2023/07/03 07:25:34;;;;;;;18.55;5.93;;;19.60;62.80;;;;;;5027191;28;20064;-75
2023/07/03 07:28:01;;;;;;;26.05;5.88;;;20.00;62.70;;;;;;5034212;28;20028;-75
2023/07/03 07:30:27;;;;;;;19.15;4.97;;;20.10;61.60;;;;;;5026253;28;20033;-76
2023/07/03 07:32:52;;;;;;;21.73;5.40;;;19.80;60.40;;;;;;5036252;28;20037;-76
2023/07/03 07:35:18;;;;;;;17.50;5.07;;;19.60;61.30;;;;;;5027072;28;20524;-75
2023/07/03 07:37:44;;;;;;;16.40;5.32;;;19.60;61.20;;;;;;5029054;28;20030;-75
2023/07/03 07:40:11;;;;;;;14.88;4.28;;;19.40;60.20;;;;;;5024313;28;20494;-76
2023/07/03 07:42:37;;;;;;;17.80;4.85;;;19.30;58.80;;;;;;5027667;28;20029;-75
2023/07/03 07:45:04;;;;;;;15.10;5.18;;;19.10;59.70;;;;;;5027308;28;20056;-76
2023/07/03 07:47:29;;;;;;;17.23;4.75;;;19.30;60.40;;;;;;5027015;28;20036;-76
2023/07/03 07:49:55;;;;;;;17.63;4.78;;;19.50;59.90;;;;;;5035932;28;20341;-76
2023/07/03 07:52:23;;;;;;;21.05;4.68;;;19.70;59.60;;;;;;5032748;28;20029;-75
2023/07/03 07:54:53;;;;;;;16.58;5.00;;;19.60;59.00;;;;;;5032993;28;20025;-75
2023/07/03 07:57:18;;;;;;;15.65;5.07;;;20.00;59.40;;;;;;5022752;28;20136;-75
2023/07/03 07:59:44;;;;;;;20.08;5.05;;;20.20;57.60;;;;;;5027009;28;20093;-76
2023/07/03 08:02:10;;;;;;;21.15;4.82;;;20.20;57.40;;;;;;5031893;28;20102;-76
2023/07/03 08:04:35;;;;;;;21.08;4.30;;;19.70;59.00;;;;;;5034277;28;20083;-76
2023/07/03 08:07:01;;;;;;;16.67;4.70;;;19.50;60.40;;;;;;5027923;28;20483;-76
2023/07/03 08:09:27;;;;;;;20.40;5.70;;;19.50;58.90;;;;;;5037612;28;20066;-75
2023/07/03 08:11:52;;;;;;;17.10;4.57;;;19.20;59.20;;;;;;5025200;28;20204;-75
2023/07/03 08:14:18;;;;;;;17.35;5.45;;;19.30;59.20;;;;;;5035158;28;20074;-75
2023/07/03 08:16:44;;;;;;;16.95;4.25;;;19.60;58.80;;;;;;5037557;28;20032;-75
2023/07/03 08:19:09;;;;;;;15.52;3.95;;;19.70;57.60;;;;;;5037503;28;20385;-76
2023/07/03 08:21:35;;;;;;;25.35;4.20;;;19.60;57.40;;;;;;5036921;28;20492;-76
2023/07/03 08:24:01;;;;;;;19.13;4.60;;;19.50;57.80;;;;;;5037824;28;20037;-76
2023/07/03 08:26:26;;;;;;;15.55;4.32;;;19.60;58.20;;;;;;5028796;28;20040;-76
2023/07/03 08:28:52;;;;;;;15.55;3.08;;;19.60;56.70;;;;;;5036073;28;20159;-76
2023/07/03 08:31:18;;;;;;;17.20;4.03;;;19.60;55.00;;;;;;5031489;28;20037;-75
2023/07/03 08:33:43;;;;;;;16.38;3.20;;;19.50;55.60;;;;;;5032947;28;20039;-76
2023/07/03 08:36:09;;;;;;;17.35;3.45;;;19.50;55.30;;;;;;5030614;28;20164;-76
2023/07/03 08:38:35;;;;;;;16.00;4.40;;;19.70;56.40;;;;;;5038154;28;20060;-76
2023/07/03 08:41:01;;;;;;;14.88;3.80;;;20.00;55.90;;;;;;5034839;28;20131;-76
2023/07/03 08:43:40;;;;;;;12.68;3.75;;;19.90;54.10;;;;;;5034549;28;20020;-75
2023/07/03 08:46:11;;;;;;;13.00;3.35;;;20.00;53.20;;;;;;5030701;28;20045;-76
2023/07/03 08:48:38;;;;;;;14.10;3.10;;;20.60;52.90;;;;;;5023326;28;20106;-76
2023/07/03 08:51:09;;;;;;;16.20;3.80;;;20.90;51.40;;;;;;5030116;28;20041;-76
2023/07/03 08:53:40;;;;;;;11.88;3.00;;;20.80;51.90;;;;;;5026861;28;20056;-75
2023/07/03 08:56:17;;;;;;;13.60;2.90;;;20.80;51.50;;;;;;5031719;28;20049;-75
2023/07/03 08:58:44;;;;;;;12.70;2.90;;;20.70;52.30;;;;;;5030404;28;20021;-76
2023/07/03 09:01:46;;;;;;;10.23;3.28;;;20.70;53.20;;;;;;5030831;28;20033;-76
2023/07/03 09:04:24;;;;;;;10.77;2.90;;;21.00;53.10;;;;;;5023150;28;20045;-76
2023/07/03 09:06:57;;;;;;;11.43;3.13;;;21.30;51.90;;;;;;5033736;28;20049;-76
2023/07/03 09:10:01;;;;;;;11.27;3.08;;;21.20;51.00;;;;;;5035785;28;20044;-75
2023/07/03 09:12:38;;;;;;;19.73;4.15;;;20.80;52.10;;;;;;5036055;28;20487;-76
2023/07/03 09:15:28;;;;;;;10.43;2.83;;;20.60;53.40;;;;;;5032031;28;20417;-76
2023/07/03 09:17:56;;;;;;;14.52;3.40;;;20.70;50.70;;;;;;5032648;28;20036;-76
2023/07/03 09:20:24;;;;;;;14.05;4.22;;;20.80;51.70;;;;;;5035792;28;20037;-76
2023/07/03 09:23:12;;;;;;;13.55;3.67;;;20.60;52.10;;;;;;5032011;28;20039;-76
2023/07/03 09:25:49;;;;;;;13.10;3.13;;;20.60;53.60;;;;;;5033942;28;20042;-77
2023/07/03 09:28:14;;;;;;;16.83;4.00;;;20.60;52.30;;;;;;5034710;28;20059;-76
2023/07/03 09:30:40;;;;;;;15.60;3.70;;;20.30;53.80;;;;;;5028791;28;20179;-76
2023/07/03 09:33:06;;;;;;;13.20;3.10;;;20.60;52.00;;;;;;5028292;28;20414;-75
2023/07/03 09:35:40;;;;;;;12.77;3.40;;;20.80;51.70;;;;;;5024175;28;20057;-75
2023/07/03 09:38:31;;;;;;;14.40;3.47;;;20.90;52.20;;;;;;5023480;28;20033;-74
2023/07/03 09:41:04;;;;;;;16.15;3.20;;;21.50;51.50;;;;;;5025775;28;20125;-75
2023/07/03 09:43:30;;;;;;;12.87;3.13;;;21.80;49.70;;;;;;5036090;28;20025;-74
2023/07/03 09:46:24;;;;;;;10.80;3.10;;;21.70;49.50;;;;;;5035086;28;20462;-74
2023/07/03 09:48:50;;;;;;;13.65;3.30;;;22.10;49.50;;;;;;5025122;28;20073;-75
2023/07/03 09:51:24;;;;;;;14.18;3.10;;;22.70;48.70;;;;;;5027408;28;20397;-75
2023/07/03 09:53:49;;;;;;;15.07;3.38;;;23.00;47.10;;;;;;5022354;28;20441;-75
2023/07/03 09:56:20;;;;;;;13.00;2.92;;;22.70;47.40;;;;;;5028429;28;20613;-75
2023/07/03 09:58:49;;;;;;;12.68;3.20;;;22.50;49.20;;;;;;5034514;28;20036;-75
2023/07/03 10:01:24;;;;;;;11.15;2.60;;;22.30;47.30;;;;;;5029779;28;20083;-75
2023/07/03 10:04:22;;;;;;;11.95;3.20;;;22.10;45.90;;;;;;5032729;28;20021;-75
2023/07/03 10:07:03;;;;;;;8.68;2.20;;;22.10;45.70;;;;;;5023560;28;20048;-75
2023/07/03 10:09:32;;;;;;;14.93;3.03;;;21.80;45.40;;;;;;5031835;28;20025;-75
2023/07/03 10:12:47;;;;;;;14.65;3.15;;;21.60;46.90;;;;;;5022285;28;20029;-75
2023/07/03 10:15:26;;;;;;;11.20;3.23;;;22.00;46.40;;;;;;4989320;28;21728;-75
2023/07/03 10:18:00;;;;;;;11.55;2.70;;;21.80;45.70;;;;;;5032926;28;20025;-75
2023/07/03 10:20:32;;;;;;;12.32;2.97;;;22.40;45.90;;;;;;5030662;28;20037;-75
2023/07/03 10:23:02;;;;;;;14.85;3.22;;;22.70;44.70;;;;;;5029211;28;20505;-74
2023/07/03 10:25:32;;;;;;;10.95;2.67;;;22.60;45.10;;;;;;5038212;28;20063;-75
2023/07/03 10:28:06;;;;;;;12.15;3.25;;;22.60;46.10;;;;;;5034763;28;20130;-75
2023/07/03 10:30:35;;;;;;;13.80;2.83;;;22.80;46.00;;;;;;5032422;28;20072;-75
2023/07/03 10:33:05;;;;;;;11.30;2.53;;;22.90;44.90;;;;;;5032963;28;20028;-75
2023/07/03 10:35:33;;;;;;;11.55;3.08;;;22.60;45.50;;;;;;5025274;28;20037;-74
2023/07/03 10:38:11;;;;;;;10.65;2.88;;;22.10;46.80;;;;;;5028977;28;20482;-75
2023/07/03 10:40:51;;;;;;;9.77;2.55;;;22.00;47.90;;;;;;5026191;28;20033;-75
2023/07/03 10:43:18;;;;;;;12.13;2.78;;;21.70;46.80;;;;;;5030816;28;20040;-74
2023/07/03 10:45:45;;;;;;;10.40;2.67;;;21.60;47.50;;;;;;5028535;28;20036;-74
2023/07/03 10:48:14;;;;;;;11.65;2.70;;;21.60;47.90;;;;;;5030168;28;20481;-74
2023/07/03 10:50:50;;;;;;;11.48;2.75;;;22.00;47.60;;;;;;5028735;28;20025;-74
2023/07/03 10:53:15;;;;;;;15.38;3.08;;;21.80;46.50;;;;;;5024408;28;20017;-75
2023/07/03 10:56:09;;;;;;;13.00;2.90;;;21.60;47.10;;;;;;5033888;28;20053;-74
2023/07/03 10:58:43;;;;;;;11.13;2.90;;;21.70;48.30;;;;;;5028357;28;20120;-76
2023/07/03 11:01:12;;;;;;;;;;;21.60;48.90;;;;;;5029278;28;20036;-75
2023/07/03 11:03:41;;;;;;;10.98;2.67;;;21.80;48.30;;;;;;5027433;28;19943;-76
2023/07/03 11:06:38;;;;;;;10.32;3.05;;;22.30;48.10;;;;;;5028381;28;20155;-74
2023/07/03 11:09:33;;;;;;;12.05;3.63;;;22.60;46.20;;;;;;5021353;28;20128;-77
2023/07/03 11:12:34;;;;;;;13.55;2.50;;;22.20;47.10;;;;;;5029771;28;20046;-76
2023/07/03 11:15:30;;;;;;;12.43;3.13;;;21.50;47.90;;;;;;5029697;28;20055;-75
2023/07/03 11:18:17;;;;;;;12.48;3.35;;;21.50;48.00;;;;;;5030423;28;20057;-75
2023/07/03 11:21:02;;;;;;;14.02;3.58;;;21.30;48.40;;;;;;5034973;28;20521;-77
2023/07/03 11:23:51;;;;;;;9.32;2.90;;;21.50;47.90;;;;;;5019357;28;20056;-75
2023/07/03 11:26:28;;;;;;;11.23;2.70;;;21.60;47.50;;;;;;5023263;28;20083;-75
2023/07/03 11:28:55;;;;;;;10.30;2.33;;;21.60;47.90;;;;;;5026185;28;20462;-74
2023/07/03 11:31:24;;;;;;;12.20;2.83;;;22.00;47.40;;;;;;5024461;28;20071;-75
2023/07/03 11:33:51;;;;;;;10.88;2.58;;;22.80;47.10;;;;;;5041150;28;20741;-75
2023/07/03 11:36:40;;;;;;;8.75;2.50;;;23.30;44.40;;;;;;5034621;28;20087;-76
2023/07/03 11:39:15;;;;;;;10.95;2.70;;;23.30;43.60;;;;;;5026498;28;20408;-76
2023/07/03 11:41:49;;;;;;;14.05;3.13;;;22.70;43.40;;;;;;5028113;28;20034;-75
2023/07/03 11:44:37;;;;;;;15.30;2.95;;;21.80;45.40;;;;;;5028783;28;20033;-76
2023/07/03 11:47:25;;;;;;;11.45;2.78;;;21.70;46.90;;;;;;5030359;28;20055;-77
2023/07/03 11:50:02;;;;;;;13.82;3.15;;;22.10;46.30;;;;;;5033212;28;20112;-76
2023/07/03 11:52:33;;;;;;;13.50;2.42;;;22.50;46.40;;;;;;5032380;28;20102;-76
2023/07/03 11:55:16;;;;;;;14.32;2.88;;;22.60;45.60;;;;;;5037613;28;21042;-76
2023/07/03 11:57:49;;;;;;;12.30;2.83;;;22.30;46.00;;;;;;5028562;28;20040;-76
2023/07/03 12:00:35;;;;;;;12.38;2.95;;;22.00;46.90;;;;;;5028728;28;20108;-76
2023/07/03 12:03:05;;;;;;;13.05;2.88;;;22.40;46.60;;;;;;5034520;28;20047;-76
2023/07/03 12:05:46;;;;;;;17.42;3.10;;;22.50;46.00;;;;;;5022300;28;20063;-75
2023/07/03 12:08:18;;;;;;;14.63;2.78;;;22.70;45.60;;;;;;5039722;28;20021;-75
2023/07/03 12:10:50;;;;;;;13.18;3.63;;;23.10;45.50;;;;;;5031088;28;20068;-75
2023/07/03 12:13:48;;;;;;;10.50;3.38;;;23.50;43.40;;;;;;5031286;28;20068;-76
2023/07/03 12:16:30;;;;;;;8.15;2.35;;;23.20;43.40;;;;;;5032021;28;20414;-74
2023/07/03 12:18:58;;;;;;;9.05;2.33;;;23.10;41.80;;;;;;5032437;28;20476;-74
2023/07/03 12:21:25;;;;;;;10.57;2.67;;;23.10;41.30;;;;;;5031035;28;20037;-75
2023/07/03 12:23:51;;;;;;;10.32;2.45;;;23.00;41.70;;;;;;5031916;28;20033;-74
2023/07/03 12:26:17;;;;;;;10.60;2.47;;;23.00;41.60;;;;;;5040961;28;20029;-75
2023/07/03 12:28:44;;;;;;;13.13;3.75;;;23.10;42.70;;;;;;5032200;28;20032;-74
2023/07/03 12:31:14;;;;;;;13.20;3.28;;;23.30;43.10;;;;;;5034400;28;20091;-75
2023/07/03 12:33:57;;;;;;;12.85;2.90;;;22.90;44.40;;;;;;5028340;28;20029;-75
2023/07/03 12:36:32;;;;;;;11.40;3.17;;;22.50;44.90;;;;;;5026434;28;20054;-76
2023/07/03 12:39:00;;;;;;;15.95;3.15;;;22.50;46.00;;;;;;5025649;28;20121;-75
2023/07/03 12:41:32;;;;;;;11.55;2.83;;;22.80;45.20;;;;;;5039829;28;20029;-75
2023/07/03 12:44:00;;;;;;;11.57;3.03;;;22.70;45.60;;;;;;5035615;28;20087;-76
2023/07/03 12:46:32;;;;;;;10.07;2.72;;;22.80;45.40;;;;;;5028582;28;20025;-76
2023/07/03 12:49:14;;;;;;;9.93;2.72;;;22.80;45.20;;;;;;5027008;28;20033;-75
2023/07/03 12:51:41;;;;;;;8.75;2.60;;;22.70;45.00;;;;;;5027291;28;20022;-75